Time;durP1;ratioP1;P1;durP2;ratioP2;P2;SDS_P1;SDS_P2;PMS_P1;PMS_P2;Temp;Humidity;BMP_temperature;BMP_pressure;BME280_temperature;BME280_humidity;BME280_pressure;Samples;Min_cycle;Max_cycle;Signal;HPM_P1;HPM_P2
2023/10/22 00:00:48;;;;;;;6.85;2.03;;;;;;;;;;5040671;28;25079;-60
2023/10/22 00:03:14;;;;;;;4.28;1.60;;;;;;;;;;5040400;28;25070;-59
2023/10/22 00:05:40;;;;;;;6.18;2.25;;;;;;;;;;5040592;28;25066;-61
2023/10/22 00:08:06;;;;;;;8.00;1.92;;;;;;;;;;5037268;28;25070;-61
2023/10/22 00:10:32;;;;;;;6.45;2.20;;;;;;;;;;5041811;28;25080;-60
2023/10/22 00:12:58;;;;;;;5.63;2.40;;;;;;;;;;5045952;28;25156;-61
2023/10/22 00:15:25;;;;;;;8.20;2.83;;;;;;;;;;5043870;28;25157;-58
2023/10/22 00:17:51;;;;;;;6.57;1.92;;;;;;;;;;5047978;28;25091;-60
2023/10/22 00:20:19;;;;;;;9.57;2.15;;;;;;;;;;5042300;28;25087;-60
2023/10/22 00:22:45;;;;;;;5.13;1.77;;;;;;;;;;5045376;28;25064;-60
2023/10/22 00:25:11;;;;;;;4.13;2.17;;;;;;;;;;5041447;28;25114;-60
2023/10/22 00:27:37;;;;;;;5.60;2.13;;;;;;;;;;5044366;28;25084;-59
2023/10/22 00:30:03;;;;;;;3.88;1.58;;;;;;;;;;5042327;28;25158;-59
2023/10/22 00:32:29;;;;;;;9.20;1.92;;;;;;;;;;5040671;28;25055;-60
2023/10/22 00:34:55;;;;;;;4.90;2.00;;;;;;;;;;5042343;28;25064;-59
2023/10/22 00:37:21;;;;;;;2.55;1.60;;;;;;;;;;5044652;28;25062;-58
2023/10/22 00:39:47;;;;;;;5.78;1.95;;;;;;;;;;5045678;28;25069;-60
2023/10/22 00:42:13;;;;;;;2.75;1.65;;;;;;;;;;5025974;28;25043;-60
2023/10/22 00:44:39;;;;;;;5.45;2.20;;;;;;;;;;5036790;28;25077;-61
2023/10/22 00:47:06;;;;;;;7.43;2.10;;;;;;;;;;5043884;28;25070;-60
2023/10/22 00:49:32;;;;;;;3.75;1.90;;;;;;;;;;5043785;28;25050;-60
2023/10/22 00:51:58;;;;;;;4.65;2.15;;;;;;;;;;5036260;28;25136;-60
2023/10/22 00:54:26;;;;;;;3.38;1.85;;;;;;;;;;5040707;28;25091;-59
2023/10/22 00:56:52;;;;;;;5.90;2.10;;;;;;;;;;5035821;28;25039;-60
2023/10/22 00:59:18;;;;;;;3.95;1.73;;;;;;;;;;5043112;28;25053;-60
2023/10/22 01:01:45;;;;;;;4.57;1.85;;;;;;;;;;5039748;28;25165;-60
2023/10/22 01:04:12;;;;;;;6.25;2.05;;;;;;;;;;5043331;28;25073;-59
2023/10/22 01:06:38;;;;;;;3.63;1.67;;;;;;;;;;5047108;28;25095;-60
2023/10/22 01:09:05;;;;;;;6.22;2.22;;;;;;;;;;5039249;28;25170;-60
2023/10/22 01:11:32;;;;;;;3.45;2.10;;;;;;;;;;5040624;28;25131;-59
2023/10/22 01:13:58;;;;;;;3.72;1.67;;;;;;;;;;5033792;28;25049;-60
2023/10/22 01:16:24;;;;;;;6.53;2.25;;;;;;;;;;5037548;28;25052;-59
2023/10/22 01:18:50;;;;;;;4.28;1.73;;;;;;;;;;5036796;28;25064;-59
2023/10/22 01:21:16;;;;;;;4.65;2.10;;;;;;;;;;5037657;28;25064;-60
2023/10/22 01:23:42;;;;;;;3.33;1.75;;;;;;;;;;5036757;28;25208;-60
2023/10/22 01:26:08;;;;;;;2.20;1.92;;;;;;;;;;5037354;28;25090;-60
2023/10/22 01:28:35;;;;;;;3.08;1.88;;;;;;;;;;5040158;28;25093;-61
2023/10/22 01:31:01;;;;;;;4.25;2.60;;;;;;;;;;5038185;28;25137;-60
2023/10/22 01:33:27;;;;;;;5.95;2.75;;;;;;;;;;5037743;28;25056;-59
2023/10/22 01:35:53;;;;;;;9.30;2.60;;;;;;;;;;5043995;28;25061;-59
2023/10/22 01:38:19;;;;;;;6.90;3.65;;;;;;;;;;5041269;28;25127;-62
2023/10/22 01:40:45;;;;;;;3.13;2.65;;;;;;;;;;5042163;28;25080;-60
2023/10/22 01:43:10;;;;;;;4.75;2.83;;;;;;;;;;5044669;28;25068;-62
2023/10/22 01:45:36;;;;;;;4.57;3.22;;;;;;;;;;5040982;28;25065;-60
2023/10/22 01:48:02;;;;;;;5.43;2.90;;;;;;;;;;5042118;28;25087;-60
2023/10/22 01:50:28;;;;;;;7.07;2.95;;;;;;;;;;5040694;28;25140;-58
2023/10/22 01:52:54;;;;;;;3.75;2.28;;;;;;;;;;5038390;28;25065;-60
2023/10/22 01:55:20;;;;;;;7.05;2.38;;;;;;;;;;5039639;28;25112;-60
2023/10/22 01:57:46;;;;;;;3.60;2.15;;;;;;;;;;5043349;28;25068;-61
2023/10/22 02:00:12;;;;;;;4.18;2.20;;;;;;;;;;5041541;28;25073;-61
2023/10/22 02:02:41;;;;;;;4.88;2.40;;;;;;;;;;5042609;28;25153;-61
2023/10/22 02:05:08;;;;;;;7.15;2.53;;;;;;;;;;5039771;28;25110;-62
2023/10/22 02:07:34;;;;;;;9.65;3.17;;;;;;;;;;5039245;28;25052;-62
2023/10/22 02:10:00;;;;;;;3.58;2.20;;;;;;;;;;5038132;28;25065;-63
2023/10/22 02:12:28;;;;;;;6.35;2.60;;;;;;;;;;5039193;28;25069;-63
2023/10/22 02:14:53;;;;;;;6.50;2.67;;;;;;;;;;5038848;28;25050;-60
2023/10/22 02:17:19;;;;;;;3.67;2.10;;;;;;;;;;5042398;28;25103;-63
2023/10/22 02:19:45;;;;;;;5.80;2.30;;;;;;;;;;5037795;28;25084;-62
2023/10/22 02:22:12;;;;;;;8.52;2.30;;;;;;;;;;5038519;28;25060;-63
2023/10/22 02:24:38;;;;;;;4.80;2.47;;;;;;;;;;5041539;28;25059;-64
2023/10/22 02:27:04;;;;;;;8.82;2.38;;;;;;;;;;5037342;28;25141;-64
2023/10/22 02:29:30;;;;;;;9.25;3.63;;;;;;;;;;5039837;28;25071;-64
2023/10/22 02:31:56;;;;;;;10.63;3.38;;;;;;;;;;5038616;28;25071;-63
2023/10/22 02:34:22;;;;;;;5.28;3.30;;;;;;;;;;5039084;28;25072;-60
2023/10/22 02:36:48;;;;;;;6.80;3.53;;;;;;;;;;5040913;28;25092;-60
2023/10/22 02:39:14;;;;;;;5.53;2.72;;;;;;;;;;5041874;28;25067;-61
2023/10/22 02:41:40;;;;;;;5.50;3.08;;;;;;;;;;5038465;28;25076;-60
2023/10/22 02:44:06;;;;;;;9.18;3.13;;;;;;;;;;5036513;28;25088;-60
2023/10/22 02:46:32;;;;;;;8.50;3.33;;;;;;;;;;5040214;28;25060;-60
2023/10/22 02:48:58;;;;;;;7.88;3.90;;;;;;;;;;5044882;28;25057;-61
2023/10/22 02:51:24;;;;;;;7.22;3.05;;;;;;;;;;5039484;28;25075;-61
2023/10/22 02:53:50;;;;;;;8.75;3.13;;;;;;;;;;5038010;28;25059;-60
2023/10/22 02:56:16;;;;;;;7.78;4.25;;;;;;;;;;5037443;28;25091;-60
2023/10/22 02:58:42;;;;;;;12.88;4.80;;;;;;;;;;5043955;28;25140;-58
2023/10/22 03:01:09;;;;;;;7.65;4.30;;;;;;;;;;5040532;28;25084;-61
2023/10/22 03:03:38;;;;;;;10.70;4.63;;;;;;;;;;5042164;28;25062;-59
2023/10/22 03:06:06;;;;;;;12.00;5.20;;;;;;;;;;5046756;28;25061;-59
2023/10/22 03:08:32;;;;;;;15.23;4.65;;;;;;;;;;5047341;28;25074;-60
2023/10/22 03:10:57;;;;;;;15.85;4.97;;;;;;;;;;5039222;28;25084;-59
2023/10/22 03:13:23;;;;;;;12.00;4.72;;;;;;;;;;5026680;28;25103;-58
2023/10/22 03:15:49;;;;;;;17.15;5.32;;;;;;;;;;5025366;28;25081;-59
2023/10/22 03:18:15;;;;;;;11.10;5.22;;;;;;;;;;5042070;28;25056;-60
2023/10/22 03:20:42;;;;;;;9.07;4.65;;;;;;;;;;5032156;28;25060;-61
2023/10/22 03:23:08;;;;;;;11.60;4.65;;;;;;;;;;5026119;28;25054;-60
2023/10/22 03:25:34;;;;;;;10.43;4.50;;;;;;;;;;5024826;28;25068;-60
2023/10/22 03:28:00;;;;;;;12.55;4.53;;;;;;;;;;5032112;28;25053;-59
2023/10/22 03:30:28;;;;;;;14.85;4.60;;;;;;;;;;5020894;28;25151;-60
2023/10/22 03:32:55;;;;;;;8.23;4.40;;;;;;;;;;5034692;28;25068;-59
2023/10/22 03:35:21;;;;;;;10.32;4.55;;;;;;;;;;5039662;28;25106;-59
2023/10/22 03:37:48;;;;;;;9.13;4.63;;;;;;;;;;5039356;28;25140;-59
2023/10/22 03:40:13;;;;;;;13.57;4.88;;;;;;;;;;5043549;28;25084;-60
2023/10/22 03:42:39;;;;;;;12.43;4.85;;;;;;;;;;5041473;28;25085;-61
2023/10/22 03:45:06;;;;;;;9.65;4.35;;;;;;;;;;5041100;28;25058;-60
2023/10/22 03:47:32;;;;;;;7.78;4.03;;;;;;;;;;5045015;28;25062;-60
2023/10/22 03:49:58;;;;;;;8.15;3.90;;;;;;;;;;5040020;28;25057;-60
2023/10/22 03:52:25;;;;;;;11.48;4.20;;;;;;;;;;5042922;28;25085;-59
2023/10/22 03:54:51;;;;;;;11.98;3.45;;;;;;;;;;5043128;28;25137;-60
2023/10/22 03:57:17;;;;;;;10.88;3.47;;;;;;;;;;5045286;28;25114;-60
2023/10/22 03:59:43;;;;;;;6.95;3.67;;;;;;;;;;5044289;28;25084;-60
2023/10/22 04:02:09;;;;;;;11.45;3.92;;;;;;;;;;5046524;28;25095;-60
2023/10/22 04:04:35;;;;;;;11.93;5.22;;;;;;;;;;5039289;28;25098;-59
2023/10/22 04:07:01;;;;;;;14.38;5.30;;;;;;;;;;5041722;28;25078;-59
2023/10/22 04:09:29;;;;;;;10.77;4.30;;;;;;;;;;5043365;28;25086;-63
2023/10/22 04:11:55;;;;;;;12.70;5.43;;;;;;;;;;5039760;28;25076;-60
2023/10/22 04:14:21;;;;;;;10.05;5.88;;;;;;;;;;5041207;28;25071;-60
2023/10/22 04:16:49;;;;;;;11.18;5.78;;;;;;;;;;5041825;28;25090;-59
2023/10/22 04:19:15;;;;;;;8.10;5.13;;;;;;;;;;5039440;28;25049;-60
2023/10/22 04:21:41;;;;;;;15.00;7.13;;;;;;;;;;5042683;28;25066;-59
2023/10/22 04:24:07;;;;;;;21.58;8.45;;;;;;;;;;5039664;28;25055;-59
2023/10/22 04:26:34;;;;;;;13.18;6.78;;;;;;;;;;5044357;28;25127;-59
2023/10/22 04:29:00;;;;;;;11.48;7.95;;;;;;;;;;5037379;28;25083;-60
2023/10/22 04:31:26;;;;;;;16.20;9.25;;;;;;;;;;5045480;28;25101;-60
2023/10/22 04:33:51;;;;;;;15.68;9.10;;;;;;;;;;5040251;28;25145;-60
2023/10/22 04:36:21;;;;;;;18.70;8.18;;;;;;;;;;5044754;28;25067;-58
2023/10/22 04:38:51;;;;;;;16.00;8.50;;;;;;;;;;5046830;28;25170;-59
2023/10/22 04:41:17;;;;;;;10.07;7.60;;;;;;;;;;5044085;28;25075;-61
2023/10/22 04:43:43;;;;;;;11.35;6.85;;;;;;;;;;5043062;28;25077;-61
2023/10/22 04:46:09;;;;;;;11.30;8.50;;;;;;;;;;5039873;28;25169;-60
2023/10/22 04:48:35;;;;;;;12.75;7.32;;;;;;;;;;5041010;28;25127;-59
2023/10/22 04:51:06;;;;;;;16.33;10.68;;;;;;;;;;5036942;28;25136;-60
2023/10/22 04:53:32;;;;;;;14.70;9.40;;;;;;;;;;5035595;28;25067;-60
2023/10/22 04:55:59;;;;;;;19.63;10.40;;;;;;;;;;5039862;28;25047;-61
2023/10/22 04:58:27;;;;;;;17.30;9.85;;;;;;;;;;5042875;28;25071;-60
2023/10/22 05:00:53;;;;;;;15.70;9.65;;;;;;;;;;5040442;28;25065;-61
2023/10/22 05:03:19;;;;;;;20.38;11.77;;;;;;;;;;5036131;28;25066;-61
2023/10/22 05:05:46;;;;;;;17.13;10.52;;;;;;;;;;5041006;28;25098;-60
2023/10/22 05:08:12;;;;;;;20.50;10.70;;;;;;;;;;5042670;28;25072;-59
2023/10/22 05:10:38;;;;;;;14.30;11.18;;;;;;;;;;5039847;28;25081;-60
2023/10/22 05:13:04;;;;;;;11.52;8.98;;;;;;;;;;5044115;28;25079;-60
2023/10/22 05:15:30;;;;;;;21.85;13.25;;;;;;;;;;5040965;28;25120;-60
2023/10/22 05:17:57;;;;;;;17.05;12.65;;;;;;;;;;5038860;28;25144;-59
2023/10/22 05:20:23;;;;;;;22.75;13.15;;;;;;;;;;5044653;28;25063;-62
2023/10/22 05:22:50;;;;;;;19.33;12.35;;;;;;;;;;5041365;28;25122;-60
2023/10/22 05:25:16;;;;;;;24.67;13.00;;;;;;;;;;5041734;28;25095;-61
2023/10/22 05:27:42;;;;;;;18.33;12.27;;;;;;;;;;5034110;28;25095;-60
2023/10/22 05:30:08;;;;;;;18.38;12.48;;;;;;;;;;5035605;28;25061;-59
2023/10/22 05:32:34;;;;;;;21.40;12.93;;;;;;;;;;5043812;28;25066;-60
2023/10/22 05:35:03;;;;;;;20.67;11.90;;;;;;;;;;5042240;28;25059;-60
2023/10/22 05:37:29;;;;;;;16.48;10.88;;;;;;;;;;5038460;28;25145;-59
2023/10/22 05:39:56;;;;;;;21.45;11.27;;;;;;;;;;5044050;28;25065;-60
2023/10/22 05:42:22;;;;;;;19.48;11.10;;;;;;;;;;5042435;28;25069;-60
2023/10/22 05:44:48;;;;;;;20.10;11.13;;;;;;;;;;5041731;28;25098;-60
2023/10/22 05:47:14;;;;;;;17.40;11.98;;;;;;;;;;5040039;28;25094;-60
2023/10/22 05:49:41;;;;;;;23.40;13.40;;;;;;;;;;5038244;28;25097;-61
2023/10/22 05:52:07;;;;;;;19.80;12.55;;;;;;;;;;5039805;28;25164;-60
2023/10/22 05:54:33;;;;;;;24.23;12.30;;;;;;;;;;5042957;28;25064;-60
2023/10/22 05:56:59;;;;;;;21.88;12.32;;;;;;;;;;5041447;28;25057;-60
2023/10/22 05:59:25;;;;;;;25.38;13.07;;;;;;;;;;5045462;28;25101;-59
2023/10/22 06:01:51;;;;;;;18.10;12.02;;;;;;;;;;5041368;28;25076;-59
2023/10/22 06:04:17;;;;;;;19.20;11.93;;;;;;;;;;5044264;28;25079;-59
2023/10/22 06:06:43;;;;;;;18.63;11.63;;;;;;;;;;5042475;28;25071;-60
2023/10/22 06:09:11;;;;;;;21.60;11.57;;;;;;;;;;5039654;28;25048;-60
2023/10/22 06:11:37;;;;;;;24.55;12.60;;;;;;;;;;5040317;28;25094;-59
2023/10/22 06:14:04;;;;;;;22.70;13.55;;;;;;;;;;5040814;28;25099;-59
2023/10/22 06:16:31;;;;;;;21.30;10.40;;;;;;;;;;5038388;28;25067;-59
2023/10/22 06:18:57;;;;;;;15.52;9.60;;;;;;;;;;5040547;28;25136;-60
2023/10/22 06:21:23;;;;;;;19.73;12.70;;;;;;;;;;5041521;28;25144;-60
2023/10/22 06:23:50;;;;;;;20.30;11.38;;;;;;;;;;5041693;28;25058;-60
2023/10/22 06:26:16;;;;;;;16.00;9.95;;;;;;;;;;5038307;28;25065;-60
2023/10/22 06:28:42;;;;;;;19.40;10.18;;;;;;;;;;5043573;28;25143;-60
2023/10/22 06:31:10;;;;;;;26.05;10.85;;;;;;;;;;5036886;28;25068;-59
2023/10/22 06:33:36;;;;;;;17.70;9.77;;;;;;;;;;5039849;28;25101;-59
2023/10/22 06:36:11;;;;;;;16.60;9.27;;;;;;;;;;5035810;28;25048;-61
2023/10/22 06:38:38;;;;;;;23.40;10.05;;;;;;;;;;5042779;28;25090;-60
2023/10/22 06:41:05;;;;;;;20.20;9.82;;;;;;;;;;5041045;28;25063;-60
2023/10/22 06:43:31;;;;;;;16.00;10.45;;;;;;;;;;5042218;28;25155;-61
2023/10/22 06:45:59;;;;;;;17.25;8.95;;;;;;;;;;5043553;28;25104;-59
2023/10/22 06:48:25;;;;;;;13.02;7.43;;;;;;;;;;5045497;28;25157;-60
2023/10/22 06:50:51;;;;;;;14.18;7.82;;;;;;;;;;5041522;28;25138;-59
2023/10/22 06:53:17;;;;;;;15.40;8.60;;;;;;;;;;5046296;28;25127;-60
2023/10/22 06:55:43;;;;;;;14.82;8.13;;;;;;;;;;5049125;28;25058;-60
2023/10/22 06:58:09;;;;;;;11.82;8.00;;;;;;;;;;5054738;28;25072;-59
2023/10/22 07:00:35;;;;;;;15.73;8.43;;;;;;;;;;5046663;28;25078;-59
2023/10/22 07:03:01;;;;;;;16.48;7.72;;;;;;;;;;5051107;28;25052;-59
2023/10/22 07:05:27;;;;;;;11.23;8.00;;;;;;;;;;5043140;28;25062;-59
2023/10/22 07:07:53;;;;;;;19.73;7.43;;;;;;;;;;5049127;28;25067;-59
2023/10/22 07:10:19;;;;;;;16.65;8.10;;;;;;;;;;5043386;28;25108;-61
2023/10/22 07:12:45;;;;;;;12.43;8.20;;;;;;;;;;5027365;28;25099;-59
2023/10/22 07:15:12;;;;;;;13.25;8.55;;;;;;;;;;5036540;28;25061;-59
2023/10/22 07:17:38;;;;;;;11.13;7.85;;;;;;;;;;5045697;28;25095;-60
2023/10/22 07:20:06;;;;;;;17.08;8.05;;;;;;;;;;5041769;28;25061;-60
2023/10/22 07:22:32;;;;;;;13.93;7.80;;;;;;;;;;5044766;28;25184;-60
2023/10/22 07:24:58;;;;;;;14.20;7.45;;;;;;;;;;5041643;28;25143;-59
2023/10/22 07:27:24;;;;;;;13.68;6.53;;;;;;;;;;5045907;28;25066;-59
2023/10/22 07:29:50;;;;;;;10.82;7.25;;;;;;;;;;5042790;28;25110;-59
2023/10/22 07:32:16;;;;;;;14.52;6.25;;;;;;;;;;5047772;28;25088;-59
2023/10/22 07:34:42;;;;;;;10.23;5.60;;;;;;;;;;5042541;28;25068;-59
2023/10/22 07:37:08;;;;;;;12.85;5.25;;;;;;;;;;5045554;28;25075;-60
2023/10/22 07:39:33;;;;;;;11.68;5.95;;;;;;;;;;5042286;28;25135;-60
2023/10/22 07:42:00;;;;;;;14.27;6.00;;;;;;;;;;5039001;28;25060;-59
2023/10/22 07:44:26;;;;;;;8.70;4.95;;;;;;;;;;5043814;28;25102;-59
2023/10/22 07:46:52;;;;;;;11.65;4.22;;;;;;;;;;5044389;28;25171;-60
2023/10/22 07:49:20;;;;;;;10.05;5.10;;;;;;;;;;5042992;28;25076;-60
2023/10/22 07:51:46;;;;;;;14.70;5.40;;;;;;;;;;5044581;28;25058;-59
2023/10/22 07:54:12;;;;;;;6.05;4.10;;;;;;;;;;5045038;28;25072;-59
2023/10/22 07:56:38;;;;;;;8.63;4.28;;;;;;;;;;5043928;28;25132;-60
2023/10/22 07:59:04;;;;;;;7.53;4.05;;;;;;;;;;5043263;28;25058;-59
2023/10/22 08:01:30;;;;;;;10.65;4.18;;;;;;;;;;5045096;28;25076;-59
2023/10/22 08:03:56;;;;;;;12.55;4.40;;;;;;;;;;5043852;28;25077;-59
2023/10/22 08:06:22;;;;;;;8.60;3.88;;;;;;;;;;5042301;28;25095;-59
2023/10/22 08:08:48;;;;;;;6.65;4.22;;;;;;;;;;5041672;28;25093;-59
2023/10/22 08:11:14;;;;;;;10.70;4.63;;;;;;;;;;5039719;28;25064;-60
2023/10/22 08:13:40;;;;;;;22.00;5.13;;;;;;;;;;5040532;28;25071;-60
2023/10/22 08:16:06;;;;;;;8.50;4.00;;;;;;;;;;5043112;28;25133;-60
2023/10/22 08:18:32;;;;;;;8.05;3.97;;;;;;;;;;5044258;28;25118;-59
2023/10/22 08:21:02;;;;;;;13.30;3.97;;;;;;;;;;5040966;28;25076;-60
2023/10/22 08:23:28;;;;;;;9.68;4.15;;;;;;;;;;5041593;28;25072;-60
2023/10/22 08:25:54;;;;;;;10.90;4.00;;;;;;;;;;5042363;28;25066;-59
2023/10/22 08:28:20;;;;;;;9.10;4.75;;;;;;;;;;5045581;28;25132;-61
2023/10/22 08:30:47;;;;;;;7.90;4.28;;;;;;;;;;5044156;28;25142;-59
2023/10/22 08:33:13;;;;;;;8.23;4.05;;;;;;;;;;5042242;28;25057;-60
2023/10/22 08:35:39;;;;;;;10.02;4.45;;;;;;;;;;5039337;28;25062;-59
2023/10/22 08:38:06;;;;;;;12.32;3.65;;;;;;;;;;5044263;28;25161;-61
2023/10/22 08:40:33;;;;;;;13.07;5.25;;;;;;;;;;5043979;28;25058;-60
2023/10/22 08:43:00;;;;;;;9.25;4.10;;;;;;;;;;5042175;28;25085;-59
2023/10/22 08:45:26;;;;;;;11.00;4.40;;;;;;;;;;5042767;28;25120;-59
2023/10/22 08:47:52;;;;;;;7.75;4.43;;;;;;;;;;5035139;28;25060;-60
2023/10/22 08:50:18;;;;;;;9.32;4.10;;;;;;;;;;5047826;28;25129;-59
2023/10/22 08:52:44;;;;;;;10.23;4.72;;;;;;;;;;5044643;28;25060;-60
2023/10/22 08:55:10;;;;;;;10.18;4.60;;;;;;;;;;5042678;28;25160;-60
2023/10/22 08:57:36;;;;;;;14.93;4.63;;;;;;;;;;5043087;28;25052;-60
2023/10/22 09:00:02;;;;;;;9.35;4.70;;;;;;;;;;5043185;28;25049;-59
2023/10/22 09:02:28;;;;;;;10.30;4.55;;;;;;;;;;5039975;28;25072;-59
2023/10/22 09:04:56;;;;;;;12.50;4.35;;;;;;;;;;5040723;28;25149;-59
2023/10/22 09:07:41;;;;;;;10.27;4.53;;;;;;;;;;5043385;28;25143;-59
2023/10/22 09:10:23;;;;;;;11.00;4.30;;;;;;;;;;5043759;28;25064;-60
2023/10/22 09:12:49;;;;;;;7.05;3.92;;;;;;;;;;5048122;28;25090;-60
2023/10/22 09:15:14;;;;;;;6.25;3.35;;;;;;;;;;5042994;28;25063;-59
2023/10/22 09:17:42;;;;;;;7.57;4.30;;;;;;;;;;5042911;28;25058;-60
2023/10/22 09:20:21;;;;;;;11.85;3.75;;;;;;;;;;5041811;28;25065;-59
2023/10/22 09:22:47;;;;;;;10.88;4.38;;;;;;;;;;5043169;28;25160;-59
2023/10/22 09:25:16;;;;;;;8.40;4.00;;;;;;;;;;5039558;28;25059;-59
2023/10/22 09:27:42;;;;;;;8.23;4.22;;;;;;;;;;5043591;28;25058;-62
2023/10/22 09:30:08;;;;;;;11.00;4.25;;;;;;;;;;5041367;28;25066;-59
2023/10/22 09:32:34;;;;;;;8.50;4.10;;;;;;;;;;5044499;28;25056;-59
2023/10/22 09:35:13;;;;;;;10.98;4.28;;;;;;;;;;5044493;28;25056;-60
2023/10/22 09:37:54;;;;;;;8.90;4.43;;;;;;;;;;5047093;28;25065;-59
2023/10/22 09:40:20;;;;;;;13.02;4.35;;;;;;;;;;5044687;28;25077;-59
2023/10/22 09:42:49;;;;;;;5.93;3.78;;;;;;;;;;5046293;28;25177;-59
2023/10/22 09:45:15;;;;;;;9.25;4.78;;;;;;;;;;5045447;28;25393;-60
2023/10/22 09:47:41;;;;;;;9.95;4.13;;;;;;;;;;5037008;28;25158;-60
2023/10/22 09:50:12;;;;;;;5.18;2.90;;;;;;;;;;5044582;28;25086;-60
2023/10/22 09:52:40;;;;;;;8.25;3.30;;;;;;;;;;5040663;28;25123;-60
2023/10/22 09:55:08;;;;;;;8.75;3.33;;;;;;;;;;5021536;28;25072;-60
2023/10/22 09:57:34;;;;;;;4.40;3.42;;;;;;;;;;5020356;28;25080;-59
2023/10/22 10:00:07;;;;;;;6.65;2.63;;;;;;;;;;5022523;28;25119;-60
2023/10/22 10:02:34;;;;;;;4.82;2.78;;;;;;;;;;5017895;28;25126;-59
2023/10/22 10:05:01;;;;;;;4.85;2.08;;;;;;;;;;5031089;28;25118;-59
2023/10/22 10:07:27;;;;;;;4.75;2.40;;;;;;;;;;5043081;28;25165;-58
2023/10/22 10:09:55;;;;;;;4.97;2.08;;;;;;;;;;5039535;28;25093;-59
2023/10/22 10:12:24;;;;;;;9.05;2.17;;;;;;;;;;5041847;28;25043;-59
2023/10/22 10:14:50;;;;;;;3.85;1.50;;;;;;;;;;5039508;28;25046;-59
2023/10/22 10:17:17;;;;;;;3.42;2.03;;;;;;;;;;5043614;28;25148;-59
2023/10/22 10:19:44;;;;;;;6.07;1.58;;;;;;;;;;5044735;28;25110;-59
2023/10/22 10:22:10;;;;;;;6.97;2.20;;;;;;;;;;5042345;28;25052;-59
2023/10/22 10:24:36;;;;;;;4.13;1.88;;;;;;;;;;5040572;28;25133;-60
2023/10/22 10:27:02;;;;;;;5.40;1.92;;;;;;;;;;5047090;28;25101;-59
2023/10/22 10:29:31;;;;;;;7.72;2.47;;;;;;;;;;5044834;28;25097;-59
2023/10/22 10:32:17;;;;;;;7.00;2.60;;;;;;;;;;5047042;28;25075;-59
2023/10/22 10:34:44;;;;;;;4.20;2.08;;;;;;;;;;5044471;28;25091;-59
2023/10/22 10:37:14;;;;;;;6.97;1.80;;;;;;;;;;5043742;28;25060;-60
2023/10/22 10:39:42;;;;;;;2.70;1.75;;;;;;;;;;5047436;28;25046;-61
2023/10/22 10:42:08;;;;;;;6.10;2.72;;;;;;;;;;5043985;28;25072;-60
2023/10/22 10:44:54;;;;;;;3.97;1.35;;;;;;;;;;5044137;28;25050;-60
2023/10/22 10:47:32;;;;;;;5.35;1.77;;;;;;;;;;5045867;28;25084;-59
2023/10/22 10:50:10;;;;;;;7.03;1.85;;;;;;;;;;5054156;28;25149;-59
2023/10/22 10:52:39;;;;;;;6.47;1.40;;;;;;;;;;5048068;28;25073;-59
2023/10/22 10:55:09;;;;;;;9.80;1.85;;;;;;;;;;5054210;28;25078;-59
2023/10/22 10:57:38;;;;;;;2.92;1.25;;;;;;;;;;5043417;28;25086;-60
2023/10/22 11:00:05;;;;;;;6.80;1.45;;;;;;;;;;5046553;28;25055;-60
2023/10/22 11:02:41;;;;;;;3.85;1.30;;;;;;;;;;5045120;28;25129;-60
2023/10/22 11:05:07;;;;;;;3.30;1.30;;;;;;;;;;5047376;28;25119;-59
2023/10/22 11:07:34;;;;;;;2.55;1.20;;;;;;;;;;5045487;28;25079;-60
2023/10/22 11:10:06;;;;;;;4.30;1.45;;;;;;;;;;5045769;28;25112;-59
2023/10/22 11:12:32;;;;;;;5.57;1.60;;;;;;;;;;5021544;28;25072;-58
2023/10/22 11:14:59;;;;;;;6.47;1.33;;;;;;;;;;5025183;28;25064;-59
2023/10/22 11:17:26;;;;;;;2.20;1.10;;;;;;;;;;5021115;28;25059;-59
2023/10/22 11:19:52;;;;;;;3.47;1.40;;;;;;;;;;5028005;28;25066;-59
2023/10/22 11:22:19;;;;;;;3.17;1.30;;;;;;;;;;5020634;28;25131;-59
2023/10/22 11:24:45;;;;;;;3.40;1.10;;;;;;;;;;5024548;28;25083;-60
2023/10/22 11:27:12;;;;;;;2.70;1.55;;;;;;;;;;5025466;28;25051;-59
2023/10/22 11:29:45;;;;;;;3.05;1.23;;;;;;;;;;5019652;28;25066;-60
2023/10/22 11:32:12;;;;;;;2.88;1.63;;;;;;;;;;5023746;28;25081;-59
2023/10/22 11:34:46;;;;;;;4.50;1.33;;;;;;;;;;5022983;28;25101;-58
2023/10/22 11:37:13;;;;;;;3.15;1.00;;;;;;;;;;5020670;28;25066;-59
2023/10/22 11:39:41;;;;;;;3.83;1.73;;;;;;;;;;5021705;28;25133;-57
2023/10/22 11:42:07;;;;;;;6.20;1.58;;;;;;;;;;5025423;28;25077;-60
2023/10/22 11:44:37;;;;;;;3.50;1.58;;;;;;;;;;5025242;28;25120;-58
2023/10/22 11:47:24;;;;;;;5.57;1.45;;;;;;;;;;5025684;28;25068;-59
2023/10/22 11:49:50;;;;;;;3.03;1.48;;;;;;;;;;5023448;28;25072;-59
2023/10/22 11:52:37;;;;;;;3.65;1.50;;;;;;;;;;5050784;28;25060;-59
2023/10/22 11:55:03;;;;;;;2.50;1.30;;;;;;;;;;5040789;28;25083;-59
2023/10/22 11:57:30;;;;;;;2.40;1.50;;;;;;;;;;5028452;28;25142;-59
2023/10/22 11:59:56;;;;;;;5.00;1.50;;;;;;;;;;5027032;28;25142;-59
2023/10/22 12:02:22;;;;;;;2.97;1.48;;;;;;;;;;5030124;28;25094;-59
2023/10/22 12:04:48;;;;;;;4.65;1.52;;;;;;;;;;5029422;28;25070;-59
2023/10/22 12:07:15;;;;;;;2.05;1.00;;;;;;;;;;5044430;28;25078;-60
2023/10/22 12:09:41;;;;;;;5.45;1.20;;;;;;;;;;5045704;28;25107;-59
2023/10/22 12:12:07;;;;;;;2.95;1.00;;;;;;;;;;5038938;28;25103;-59
2023/10/22 12:14:33;;;;;;;5.13;1.48;;;;;;;;;;5043584;28;25156;-59
2023/10/22 12:16:59;;;;;;;3.53;1.27;;;;;;;;;;5035258;28;25110;-59
2023/10/22 12:19:25;;;;;;;2.83;1.15;;;;;;;;;;5044827;28;25122;-58
2023/10/22 12:21:51;;;;;;;3.22;1.10;;;;;;;;;;5039555;28;25074;-60
2023/10/22 12:24:17;;;;;;;2.58;1.40;;;;;;;;;;5038472;28;25070;-60
2023/10/22 12:26:44;;;;;;;1.83;0.93;;;;;;;;;;5030629;28;25175;-60
2023/10/22 12:29:10;;;;;;;3.53;0.95;;;;;;;;;;5035916;28;25064;-59
2023/10/22 12:31:36;;;;;;;4.60;1.13;;;;;;;;;;5037202;28;25116;-59
2023/10/22 12:34:03;;;;;;;2.30;0.90;;;;;;;;;;5041954;28;25104;-59
2023/10/22 12:36:29;;;;;;;6.65;1.40;;;;;;;;;;5032839;28;25136;-60
2023/10/22 12:38:55;;;;;;;5.75;1.52;;;;;;;;;;5038494;28;25067;-60
2023/10/22 12:41:21;;;;;;;3.13;1.02;;;;;;;;;;5039391;28;25142;-60
2023/10/22 12:43:47;;;;;;;2.30;0.90;;;;;;;;;;5040769;28;25063;-59
2023/10/22 12:46:13;;;;;;;3.22;1.00;;;;;;;;;;5035751;28;25059;-60
2023/10/22 12:48:39;;;;;;;5.22;1.00;;;;;;;;;;5036045;28;25149;-61
2023/10/22 12:51:05;;;;;;;4.63;1.17;;;;;;;;;;5034492;28;25145;-60
2023/10/22 12:53:31;;;;;;;6.47;1.30;;;;;;;;;;5036419;28;25069;-60
2023/10/22 12:55:57;;;;;;;1.60;0.85;;;;;;;;;;5041965;28;25086;-58
2023/10/22 12:58:23;;;;;;;2.38;1.00;;;;;;;;;;5033249;28;25100;-59
2023/10/22 13:00:49;;;;;;;1.67;0.70;;;;;;;;;;5034819;28;25144;-60
2023/10/22 13:03:15;;;;;;;4.68;0.95;;;;;;;;;;5038710;28;25125;-59
2023/10/22 13:05:42;;;;;;;4.28;1.20;;;;;;;;;;5036436;28;25154;-59
2023/10/22 13:08:09;;;;;;;2.05;0.95;;;;;;;;;;5034815;28;25148;-62
2023/10/22 13:10:35;;;;;;;3.97;1.05;;;;;;;;;;5032884;28;25080;-60
2023/10/22 13:13:02;;;;;;;2.70;1.00;;;;;;;;;;5039974;28;25136;-60
2023/10/22 13:15:28;;;;;;;4.15;0.80;;;;;;;;;;5037892;28;25055;-59
2023/10/22 13:17:54;;;;;;;1.73;0.80;;;;;;;;;;5037364;28;25163;-59
2023/10/22 13:20:20;;;;;;;4.30;1.00;;;;;;;;;;5044805;28;25078;-60
2023/10/22 13:22:46;;;;;;;4.00;0.80;;;;;;;;;;5039072;28;25072;-59
2023/10/22 13:25:12;;;;;;;3.72;0.80;;;;;;;;;;5037384;28;25155;-59
2023/10/22 13:27:38;;;;;;;4.32;1.10;;;;;;;;;;5041223;28;25047;-59
2023/10/22 13:30:04;;;;;;;4.78;1.20;;;;;;;;;;5036438;28;25052;-59
2023/10/22 13:32:31;;;;;;;4.65;0.90;;;;;;;;;;5030892;28;25056;-60
2023/10/22 13:34:57;;;;;;;5.22;1.10;;;;;;;;;;5038647;28;25084;-60
2023/10/22 13:37:23;;;;;;;2.55;0.80;;;;;;;;;;5044170;28;25152;-59
2023/10/22 13:39:48;;;;;;;6.10;1.20;;;;;;;;;;5041876;28;25058;-59
2023/10/22 13:42:15;;;;;;;4.90;1.35;;;;;;;;;;5039467;28;25062;-60
2023/10/22 13:44:43;;;;;;;5.60;1.10;;;;;;;;;;5043087;28;25069;-59
2023/10/22 13:47:10;;;;;;;3.25;0.88;;;;;;;;;;5041342;28;25060;-61
2023/10/22 13:49:36;;;;;;;2.42;1.13;;;;;;;;;;5040797;28;25085;-59
2023/10/22 13:52:03;;;;;;;3.33;0.88;;;;;;;;;;5038591;28;25052;-59
2023/10/22 13:54:30;;;;;;;2.90;1.63;;;;;;;;;;5035037;28;25123;-60
2023/10/22 13:56:55;;;;;;;4.40;1.15;;;;;;;;;;5044013;28;25202;-59
2023/10/22 13:59:22;;;;;;;4.63;1.40;;;;;;;;;;5036278;28;25065;-60
2023/10/22 14:01:47;;;;;;;6.80;2.60;;;;;;;;;;5036984;28;25076;-60
2023/10/22 14:04:13;;;;;;;2.08;1.48;;;;;;;;;;5041171;28;25080;-60
2023/10/22 14:06:39;;;;;;;3.42;1.23;;;;;;;;;;5036337;28;25076;-59
2023/10/22 14:09:05;;;;;;;3.00;1.30;;;;;;;;;;5035429;28;25164;-59
2023/10/22 14:11:31;;;;;;;6.35;1.33;;;;;;;;;;5042084;28;25113;-60
2023/10/22 14:13:58;;;;;;;4.63;1.40;;;;;;;;;;5031640;28;25066;-60
2023/10/22 14:16:24;;;;;;;3.17;1.42;;;;;;;;;;5038319;28;25117;-60
2023/10/22 14:18:50;;;;;;;1.92;1.10;;;;;;;;;;5046245;28;25053;-60
2023/10/22 14:21:18;;;;;;;5.93;1.70;;;;;;;;;;5043802;28;25108;-61
2023/10/22 14:23:44;;;;;;;2.80;1.33;;;;;;;;;;5037850;28;25061;-60
2023/10/22 14:26:10;;;;;;;3.63;1.20;;;;;;;;;;5038611;28;25121;-59
2023/10/22 14:28:36;;;;;;;8.32;1.40;;;;;;;;;;5044024;28;25079;-60
2023/10/22 14:31:06;;;;;;;4.22;1.13;;;;;;;;;;5044443;28;25129;-60
2023/10/22 14:33:32;;;;;;;4.70;1.42;;;;;;;;;;5040895;28;25135;-60